sensor_id;sensor_type;location;lat;lon;timestamp;P1;durP1;ratioP1;P2;durP2;ratioP2
39066;SDS011;24821;51.988;6.020;2022-07-04T00:00:00;29.45;;;27.98;;
39066;SDS011;24821;51.988;6.020;2022-07-04T00:02:27;30.02;;;28.73;;
39066;SDS011;24821;51.988;6.020;2022-07-04T00:04:52;26.52;;;25.27;;
39066;SDS011;24821;51.988;6.020;2022-07-04T00:07:18;24.08;;;22.85;;
39066;SDS011;24821;51.988;6.020;2022-07-04T00:09:44;21.73;;;20.73;;
39066;SDS011;24821;51.988;6.020;2022-07-04T00:12:09;18.80;;;17.50;;
39066;SDS011;24821;51.988;6.020;2022-07-04T00:14:35;15.13;;;14.25;;
39066;SDS011;24821;51.988;6.020;2022-07-04T00:17:01;15.57;;;14.77;;
39066;SDS011;24821;51.988;6.020;2022-07-04T00:19:26;15.48;;;14.73;;
39066;SDS011;24821;51.988;6.020;2022-07-04T00:21:52;15.75;;;14.75;;
39066;SDS011;24821;51.988;6.020;2022-07-04T00:24:17;13.38;;;12.75;;
39066;SDS011;24821;51.988;6.020;2022-07-04T00:26:43;14.32;;;13.68;;
39066;SDS011;24821;51.988;6.020;2022-07-04T00:29:09;15.52;;;14.63;;
39066;SDS011;24821;51.988;6.020;2022-07-04T00:31:34;14.73;;;13.73;;
39066;SDS011;24821;51.988;6.020;2022-07-04T00:34:00;14.02;;;13.43;;
39066;SDS011;24821;51.988;6.020;2022-07-04T00:36:26;13.95;;;13.15;;
39066;SDS011;24821;51.988;6.020;2022-07-04T00:38:52;14.25;;;13.57;;
39066;SDS011;24821;51.988;6.020;2022-07-04T00:41:17;13.10;;;12.50;;
39066;SDS011;24821;51.988;6.020;2022-07-04T00:43:43;14.88;;;14.20;;
39066;SDS011;24821;51.988;6.020;2022-07-04T00:46:24;15.70;;;14.90;;
39066;SDS011;24821;51.988;6.020;2022-07-04T00:48:49;15.73;;;14.93;;
39066;SDS011;24821;51.988;6.020;2022-07-04T00:51:15;15.75;;;14.85;;
39066;SDS011;24821;51.988;6.020;2022-07-04T00:53:40;15.98;;;14.98;;
39066;SDS011;24821;51.988;6.020;2022-07-04T00:56:06;15.88;;;15.07;;
39066;SDS011;24821;51.988;6.020;2022-07-04T00:58:31;16.80;;;16.00;;
39066;SDS011;24821;51.988;6.020;2022-07-04T01:00:57;17.23;;;16.33;;
39066;SDS011;24821;51.988;6.020;2022-07-04T01:03:23;18.42;;;17.25;;
39066;SDS011;24821;51.988;6.020;2022-07-04T01:05:48;17.13;;;16.33;;
39066;SDS011;24821;51.988;6.020;2022-07-04T01:08:14;18.58;;;17.58;;
39066;SDS011;24821;51.988;6.020;2022-07-04T01:10:41;18.67;;;17.75;;
39066;SDS011;24821;51.988;6.020;2022-07-04T01:13:06;18.60;;;17.70;;
39066;SDS011;24821;51.988;6.020;2022-07-04T01:15:32;19.23;;;18.33;;
39066;SDS011;24821;51.988;6.020;2022-07-04T01:17:57;19.42;;;18.50;;
39066;SDS011;24821;51.988;6.020;2022-07-04T01:20:23;19.77;;;18.67;;
39066;SDS011;24821;51.988;6.020;2022-07-04T01:22:49;20.92;;;19.75;;
39066;SDS011;24821;51.988;6.020;2022-07-04T01:25:14;18.63;;;17.63;;
39066;SDS011;24821;51.988;6.020;2022-07-04T01:27:40;18.17;;;17.27;;
39066;SDS011;24821;51.988;6.020;2022-07-04T01:30:06;19.33;;;18.23;;
39066;SDS011;24821;51.988;6.020;2022-07-04T01:32:33;19.08;;;18.08;;
39066;SDS011;24821;51.988;6.020;2022-07-04T01:34:58;16.13;;;15.30;;
39066;SDS011;24821;51.988;6.020;2022-07-04T01:37:24;16.98;;;16.05;;
39066;SDS011;24821;51.988;6.020;2022-07-04T01:39:49;17.27;;;16.48;;
39066;SDS011;24821;51.988;6.020;2022-07-04T01:42:15;18.00;;;17.10;;
39066;SDS011;24821;51.988;6.020;2022-07-04T01:44:41;17.00;;;16.20;;
39066;SDS011;24821;51.988;6.020;2022-07-04T01:47:06;17.55;;;16.65;;
39066;SDS011;24821;51.988;6.020;2022-07-04T01:49:32;16.73;;;15.88;;
39066;SDS011;24821;51.988;6.020;2022-07-04T01:51:57;17.70;;;16.63;;
39066;SDS011;24821;51.988;6.020;2022-07-04T01:54:23;17.13;;;16.25;;
39066;SDS011;24821;51.988;6.020;2022-07-04T01:56:50;17.63;;;16.73;;
39066;SDS011;24821;51.988;6.020;2022-07-04T01:59:15;18.13;;;17.23;;
39066;SDS011;24821;51.988;6.020;2022-07-04T02:01:41;17.30;;;16.35;;
39066;SDS011;24821;51.988;6.020;2022-07-04T02:04:06;18.08;;;17.25;;
39066;SDS011;24821;51.988;6.020;2022-07-04T02:06:33;17.65;;;16.67;;
39066;SDS011;24821;51.988;6.020;2022-07-04T02:08:59;16.45;;;15.70;;
39066;SDS011;24821;51.988;6.020;2022-07-04T02:11:40;16.80;;;15.80;;
39066;SDS011;24821;51.988;6.020;2022-07-04T02:14:25;14.45;;;13.65;;
39066;SDS011;24821;51.988;6.020;2022-07-04T02:16:50;14.57;;;13.68;;
39066;SDS011;24821;51.988;6.020;2022-07-04T02:19:17;12.75;;;12.15;;
39066;SDS011;24821;51.988;6.020;2022-07-04T02:21:44;12.27;;;11.63;;
39066;SDS011;24821;51.988;6.020;2022-07-04T02:24:10;12.52;;;11.65;;
39066;SDS011;24821;51.988;6.020;2022-07-04T02:26:36;11.35;;;10.70;;
39066;SDS011;24821;51.988;6.020;2022-07-04T02:29:01;13.13;;;12.43;;
39066;SDS011;24821;51.988;6.020;2022-07-04T02:31:27;12.73;;;12.13;;
39066;SDS011;24821;51.988;6.020;2022-07-04T02:33:53;12.55;;;11.90;;
39066;SDS011;24821;51.988;6.020;2022-07-04T02:36:18;10.77;;;10.10;;
39066;SDS011;24821;51.988;6.020;2022-07-04T02:38:44;11.73;;;11.15;;
39066;SDS011;24821;51.988;6.020;2022-07-04T02:41:09;11.80;;;11.10;;
39066;SDS011;24821;51.988;6.020;2022-07-04T02:43:35;11.75;;;10.85;;
39066;SDS011;24821;51.988;6.020;2022-07-04T02:46:00;11.88;;;11.07;;
39066;SDS011;24821;51.988;6.020;2022-07-04T02:48:26;11.68;;;11.07;;
39066;SDS011;24821;51.988;6.020;2022-07-04T02:50:51;12.43;;;11.80;;
39066;SDS011;24821;51.988;6.020;2022-07-04T02:53:17;12.90;;;12.13;;
39066;SDS011;24821;51.988;6.020;2022-07-04T02:55:42;15.50;;;14.52;;
39066;SDS011;24821;51.988;6.020;2022-07-04T02:58:08;14.38;;;13.57;;
39066;SDS011;24821;51.988;6.020;2022-07-04T03:00:34;14.68;;;13.88;;
39066;SDS011;24821;51.988;6.020;2022-07-04T03:02:59;17.15;;;15.88;;
39066;SDS011;24821;51.988;6.020;2022-07-04T03:05:25;18.35;;;17.45;;
39066;SDS011;24821;51.988;6.020;2022-07-04T03:07:50;21.42;;;20.38;;
39066;SDS011;24821;51.988;6.020;2022-07-04T03:10:16;22.67;;;21.50;;
39066;SDS011;24821;51.988;6.020;2022-07-04T03:12:41;24.00;;;22.90;;
39066;SDS011;24821;51.988;6.020;2022-07-04T03:15:07;22.75;;;21.67;;
39066;SDS011;24821;51.988;6.020;2022-07-04T03:17:33;23.77;;;22.67;;
39066;SDS011;24821;51.988;6.020;2022-07-04T03:19:59;23.08;;;21.98;;
39066;SDS011;24821;51.988;6.020;2022-07-04T03:22:25;23.17;;;22.10;;
39066;SDS011;24821;51.988;6.020;2022-07-04T03:24:51;23.27;;;22.13;;
39066;SDS011;24821;51.988;6.020;2022-07-04T03:27:17;23.67;;;22.58;;
39066;SDS011;24821;51.988;6.020;2022-07-04T03:29:42;23.70;;;22.52;;
39066;SDS011;24821;51.988;6.020;2022-07-04T03:32:08;20.80;;;19.80;;
39066;SDS011;24821;51.988;6.020;2022-07-04T03:34:34;22.77;;;21.67;;
39066;SDS011;24821;51.988;6.020;2022-07-04T03:37:00;21.08;;;20.00;;
39066;SDS011;24821;51.988;6.020;2022-07-04T03:39:25;20.83;;;19.73;;
39066;SDS011;24821;51.988;6.020;2022-07-04T03:41:51;23.10;;;21.90;;
39066;SDS011;24821;51.988;6.020;2022-07-04T03:44:17;20.83;;;19.63;;
39066;SDS011;24821;51.988;6.020;2022-07-04T03:46:42;21.42;;;20.48;;
39066;SDS011;24821;51.988;6.020;2022-07-04T03:49:08;21.40;;;20.30;;
39066;SDS011;24821;51.988;6.020;2022-07-04T03:51:33;23.55;;;22.25;;
39066;SDS011;24821;51.988;6.020;2022-07-04T03:53:59;21.35;;;20.38;;
39066;SDS011;24821;51.988;6.020;2022-07-04T03:56:25;22.15;;;20.92;;
39066;SDS011;24821;51.988;6.020;2022-07-04T03:58:50;22.33;;;21.02;;
39066;SDS011;24821;51.988;6.020;2022-07-04T04:01:16;22.23;;;21.25;;
39066;SDS011;24821;51.988;6.020;2022-07-04T04:03:45;22.77;;;21.77;;
39066;SDS011;24821;51.988;6.020;2022-07-04T04:06:30;23.35;;;22.20;;
39066;SDS011;24821;51.988;6.020;2022-07-04T04:08:56;23.67;;;22.45;;
39066;SDS011;24821;51.988;6.020;2022-07-04T04:11:22;25.40;;;24.13;;
39066;SDS011;24821;51.988;6.020;2022-07-04T04:13:47;21.10;;;20.10;;
39066;SDS011;24821;51.988;6.020;2022-07-04T04:16:13;23.98;;;22.65;;
39066;SDS011;24821;51.988;6.020;2022-07-04T04:18:39;24.60;;;23.30;;
39066;SDS011;24821;51.988;6.020;2022-07-04T04:21:04;22.20;;;21.00;;
39066;SDS011;24821;51.988;6.020;2022-07-04T04:23:30;25.02;;;23.83;;
39066;SDS011;24821;51.988;6.020;2022-07-04T04:25:56;25.02;;;23.33;;
39066;SDS011;24821;51.988;6.020;2022-07-04T04:28:22;23.52;;;22.35;;
39066;SDS011;24821;51.988;6.020;2022-07-04T04:30:47;21.60;;;20.52;;
39066;SDS011;24821;51.988;6.020;2022-07-04T04:33:13;21.85;;;20.65;;
39066;SDS011;24821;51.988;6.020;2022-07-04T04:35:39;21.27;;;20.08;;
39066;SDS011;24821;51.988;6.020;2022-07-04T04:38:04;21.95;;;20.85;;
39066;SDS011;24821;51.988;6.020;2022-07-04T04:40:30;20.10;;;18.90;;
39066;SDS011;24821;51.988;6.020;2022-07-04T04:42:55;18.05;;;16.83;;
39066;SDS011;24821;51.988;6.020;2022-07-04T04:45:21;18.73;;;17.63;;
39066;SDS011;24821;51.988;6.020;2022-07-04T04:47:47;16.95;;;15.65;;
39066;SDS011;24821;51.988;6.020;2022-07-04T04:50:12;17.60;;;16.55;;
39066;SDS011;24821;51.988;6.020;2022-07-04T04:52:39;36.25;;;34.28;;
39066;SDS011;24821;51.988;6.020;2022-07-04T04:55:06;26.23;;;24.88;;
39066;SDS011;24821;51.988;6.020;2022-07-04T04:57:32;29.95;;;28.17;;
39066;SDS011;24821;51.988;6.020;2022-07-04T04:59:58;23.40;;;22.02;;
39066;SDS011;24821;51.988;6.020;2022-07-04T05:02:23;25.65;;;24.15;;
39066;SDS011;24821;51.988;6.020;2022-07-04T05:04:49;22.63;;;21.27;;
39066;SDS011;24821;51.988;6.020;2022-07-04T05:07:14;21.55;;;20.23;;
39066;SDS011;24821;51.988;6.020;2022-07-04T05:09:40;18.45;;;17.33;;
39066;SDS011;24821;51.988;6.020;2022-07-04T05:12:06;18.98;;;17.67;;
39066;SDS011;24821;51.988;6.020;2022-07-04T05:14:31;16.95;;;15.95;;
39066;SDS011;24821;51.988;6.020;2022-07-04T05:16:57;16.35;;;15.35;;
39066;SDS011;24821;51.988;6.020;2022-07-04T05:19:23;16.00;;;14.90;;
39066;SDS011;24821;51.988;6.020;2022-07-04T05:21:48;17.13;;;16.05;;
39066;SDS011;24821;51.988;6.020;2022-07-04T05:24:14;18.23;;;16.77;;
39066;SDS011;24821;51.988;6.020;2022-07-04T05:26:41;21.08;;;19.58;;
39066;SDS011;24821;51.988;6.020;2022-07-04T05:29:07;17.90;;;16.60;;
39066;SDS011;24821;51.988;6.020;2022-07-04T05:31:32;20.20;;;18.98;;
39066;SDS011;24821;51.988;6.020;2022-07-04T05:33:58;21.88;;;20.00;;
39066;SDS011;24821;51.988;6.020;2022-07-04T05:36:24;19.83;;;18.23;;
39066;SDS011;24821;51.988;6.020;2022-07-04T05:38:50;18.67;;;17.27;;
39066;SDS011;24821;51.988;6.020;2022-07-04T05:41:16;19.73;;;18.45;;
39066;SDS011;24821;51.988;6.020;2022-07-04T05:43:42;19.67;;;18.33;;
39066;SDS011;24821;51.988;6.020;2022-07-04T05:46:07;17.30;;;16.30;;
39066;SDS011;24821;51.988;6.020;2022-07-04T05:48:33;18.65;;;17.42;;
39066;SDS011;24821;51.988;6.020;2022-07-04T05:50:59;17.80;;;16.70;;
39066;SDS011;24821;51.988;6.020;2022-07-04T05:53:24;17.52;;;16.48;;
39066;SDS011;24821;51.988;6.020;2022-07-04T05:55:50;19.40;;;18.17;;
39066;SDS011;24821;51.988;6.020;2022-07-04T05:58:18;21.40;;;20.10;;
39066;SDS011;24821;51.988;6.020;2022-07-04T06:00:44;17.67;;;16.77;;
39066;SDS011;24821;51.988;6.020;2022-07-04T06:03:09;13.00;;;12.27;;
39066;SDS011;24821;51.988;6.020;2022-07-04T06:05:35;15.93;;;14.90;;
39066;SDS011;24821;51.988;6.020;2022-07-04T06:08:07;11.38;;;10.77;;
39066;SDS011;24821;51.988;6.020;2022-07-04T06:10:32;11.25;;;10.52;;
39066;SDS011;24821;51.988;6.020;2022-07-04T06:12:58;12.85;;;11.82;;
39066;SDS011;24821;51.988;6.020;2022-07-04T06:15:24;15.55;;;14.45;;
39066;SDS011;24821;51.988;6.020;2022-07-04T06:17:50;14.43;;;13.63;;
39066;SDS011;24821;51.988;6.020;2022-07-04T06:20:15;17.48;;;16.40;;
39066;SDS011;24821;51.988;6.020;2022-07-04T06:22:45;14.23;;;13.40;;
39066;SDS011;24821;51.988;6.020;2022-07-04T06:25:15;14.27;;;13.43;;
39066;SDS011;24821;51.988;6.020;2022-07-04T06:27:42;15.23;;;14.25;;
39066;SDS011;24821;51.988;6.020;2022-07-04T06:30:09;17.65;;;16.65;;
39066;SDS011;24821;51.988;6.020;2022-07-04T06:32:45;17.20;;;16.23;;
39066;SDS011;24821;51.988;6.020;2022-07-04T06:35:11;16.77;;;15.63;;
39066;SDS011;24821;51.988;6.020;2022-07-04T06:37:55;15.40;;;14.18;;
39066;SDS011;24821;51.988;6.020;2022-07-04T06:40:21;14.93;;;13.77;;
39066;SDS011;24821;51.988;6.020;2022-07-04T06:42:47;14.70;;;14.00;;
39066;SDS011;24821;51.988;6.020;2022-07-04T06:45:13;13.65;;;12.70;;
39066;SDS011;24821;51.988;6.020;2022-07-04T06:47:38;15.52;;;14.50;;
39066;SDS011;24821;51.988;6.020;2022-07-04T06:50:05;13.73;;;12.90;;
39066;SDS011;24821;51.988;6.020;2022-07-04T06:52:31;14.60;;;13.57;;
39066;SDS011;24821;51.988;6.020;2022-07-04T06:54:56;15.85;;;14.88;;
39066;SDS011;24821;51.988;6.020;2022-07-04T06:57:22;17.70;;;16.60;;
39066;SDS011;24821;51.988;6.020;2022-07-04T06:59:47;11.45;;;10.68;;
39066;SDS011;24821;51.988;6.020;2022-07-04T07:02:13;19.05;;;17.55;;
39066;SDS011;24821;51.988;6.020;2022-07-04T07:04:38;13.25;;;12.52;;
39066;SDS011;24821;51.988;6.020;2022-07-04T07:07:06;13.63;;;12.45;;
39066;SDS011;24821;51.988;6.020;2022-07-04T07:09:36;14.10;;;13.07;;
39066;SDS011;24821;51.988;6.020;2022-07-04T07:12:02;13.95;;;13.00;;
39066;SDS011;24821;51.988;6.020;2022-07-04T07:14:28;11.95;;;10.95;;
39066;SDS011;24821;51.988;6.020;2022-07-04T07:16:54;11.65;;;10.93;;
39066;SDS011;24821;51.988;6.020;2022-07-04T07:19:20;11.43;;;10.68;;
39066;SDS011;24821;51.988;6.020;2022-07-04T07:21:46;13.18;;;12.20;;
39066;SDS011;24821;51.988;6.020;2022-07-04T07:24:11;14.15;;;12.95;;
39066;SDS011;24821;51.988;6.020;2022-07-04T07:26:37;13.48;;;11.88;;
39066;SDS011;24821;51.988;6.020;2022-07-04T07:29:02;15.50;;;14.32;;
39066;SDS011;24821;51.988;6.020;2022-07-04T07:31:28;11.00;;;10.40;;
39066;SDS011;24821;51.988;6.020;2022-07-04T07:33:54;13.38;;;12.48;;
39066;SDS011;24821;51.988;6.020;2022-07-04T07:36:19;11.05;;;10.35;;
39066;SDS011;24821;51.988;6.020;2022-07-04T07:38:45;15.00;;;14.10;;
39066;SDS011;24821;51.988;6.020;2022-07-04T07:41:10;12.35;;;11.45;;
39066;SDS011;24821;51.988;6.020;2022-07-04T07:43:36;12.40;;;11.65;;
39066;SDS011;24821;51.988;6.020;2022-07-04T07:46:06;17.10;;;15.80;;
39066;SDS011;24821;51.988;6.020;2022-07-04T07:48:33;16.42;;;15.20;;
39066;SDS011;24821;51.988;6.020;2022-07-04T07:50:59;13.82;;;12.77;;
39066;SDS011;24821;51.988;6.020;2022-07-04T07:53:25;18.38;;;17.08;;
39066;SDS011;24821;51.988;6.020;2022-07-04T07:55:51;18.55;;;17.38;;
39066;SDS011;24821;51.988;6.020;2022-07-04T07:58:16;14.88;;;13.93;;
39066;SDS011;24821;51.988;6.020;2022-07-04T08:00:42;15.75;;;14.70;;
39066;SDS011;24821;51.988;6.020;2022-07-04T08:03:07;14.27;;;13.15;;
39066;SDS011;24821;51.988;6.020;2022-07-04T08:05:51;20.77;;;19.60;;
39066;SDS011;24821;51.988;6.020;2022-07-04T08:08:18;23.00;;;21.35;;
39066;SDS011;24821;51.988;6.020;2022-07-04T08:10:44;15.15;;;14.05;;
39066;SDS011;24821;51.988;6.020;2022-07-04T08:13:09;12.80;;;11.55;;
39066;SDS011;24821;51.988;6.020;2022-07-04T08:15:35;12.27;;;11.30;;
39066;SDS011;24821;51.988;6.020;2022-07-04T08:18:01;12.95;;;12.05;;
39066;SDS011;24821;51.988;6.020;2022-07-04T08:20:27;12.70;;;11.73;;
39066;SDS011;24821;51.988;6.020;2022-07-04T08:22:52;18.98;;;17.77;;
39066;SDS011;24821;51.988;6.020;2022-07-04T08:25:18;16.23;;;14.93;;
39066;SDS011;24821;51.988;6.020;2022-07-04T08:27:45;15.80;;;14.70;;
39066;SDS011;24821;51.988;6.020;2022-07-04T08:30:10;13.85;;;12.85;;
39066;SDS011;24821;51.988;6.020;2022-07-04T08:32:36;11.50;;;10.40;;
39066;SDS011;24821;51.988;6.020;2022-07-04T08:35:02;10.35;;;9.27;;
39066;SDS011;24821;51.988;6.020;2022-07-04T08:37:28;13.15;;;12.15;;
39066;SDS011;24821;51.988;6.020;2022-07-04T08:39:54;16.05;;;15.02;;
39066;SDS011;24821;51.988;6.020;2022-07-04T08:42:20;11.10;;;10.10;;
39066;SDS011;24821;51.988;6.020;2022-07-04T08:44:55;13.27;;;12.38;;
39066;SDS011;24821;51.988;6.020;2022-07-04T08:47:23;11.73;;;10.82;;
39066;SDS011;24821;51.988;6.020;2022-07-04T08:49:59;12.75;;;11.80;;
39066;SDS011;24821;51.988;6.020;2022-07-04T08:52:48;18.73;;;17.17;;
39066;SDS011;24821;51.988;6.020;2022-07-04T08:55:28;18.33;;;16.90;;
39066;SDS011;24821;51.988;6.020;2022-07-04T08:58:13;10.07;;;9.30;;
39066;SDS011;24821;51.988;6.020;2022-07-04T09:00:51;11.40;;;10.52;;
39066;SDS011;24821;51.988;6.020;2022-07-04T09:03:19;10.18;;;9.38;;
39066;SDS011;24821;51.988;6.020;2022-07-04T09:05:52;21.88;;;20.02;;
39066;SDS011;24821;51.988;6.020;2022-07-04T09:08:22;27.63;;;25.13;;
39066;SDS011;24821;51.988;6.020;2022-07-04T09:10:49;16.60;;;15.30;;
39066;SDS011;24821;51.988;6.020;2022-07-04T09:13:15;11.90;;;10.95;;
39066;SDS011;24821;51.988;6.020;2022-07-04T09:15:46;14.25;;;13.00;;
39066;SDS011;24821;51.988;6.020;2022-07-04T09:18:34;13.75;;;12.60;;
39066;SDS011;24821;51.988;6.020;2022-07-04T09:21:08;9.95;;;9.23;;
39066;SDS011;24821;51.988;6.020;2022-07-04T09:23:48;11.43;;;10.60;;
39066;SDS011;24821;51.988;6.020;2022-07-04T09:29:03;10.68;;;10.07;;
39066;SDS011;24821;51.988;6.020;2022-07-04T09:31:30;13.95;;;13.15;;
39066;SDS011;24821;51.988;6.020;2022-07-04T09:34:00;16.23;;;15.00;;
39066;SDS011;24821;51.988;6.020;2022-07-04T09:39:09;11.15;;;10.27;;
39066;SDS011;24821;51.988;6.020;2022-07-04T09:44:15;10.68;;;10.02;;
39066;SDS011;24821;51.988;6.020;2022-07-04T09:46:40;12.80;;;11.73;;
39066;SDS011;24821;51.988;6.020;2022-07-04T09:49:06;9.98;;;9.27;;
39066;SDS011;24821;51.988;6.020;2022-07-04T09:51:38;11.95;;;11.05;;
39066;SDS011;24821;51.988;6.020;2022-07-04T09:56:40;17.10;;;15.93;;
39066;SDS011;24821;51.988;6.020;2022-07-04T09:59:06;15.77;;;14.80;;
39066;SDS011;24821;51.988;6.020;2022-07-04T10:01:32;12.50;;;11.60;;
39066;SDS011;24821;51.988;6.020;2022-07-04T10:03:58;10.82;;;10.02;;
39066;SDS011;24821;51.988;6.020;2022-07-04T10:06:24;12.10;;;11.27;;
39066;SDS011;24821;51.988;6.020;2022-07-04T10:08:50;10.50;;;9.90;;
39066;SDS011;24821;51.988;6.020;2022-07-04T10:11:16;11.38;;;10.68;;
39066;SDS011;24821;51.988;6.020;2022-07-04T10:13:43;12.93;;;12.23;;
39066;SDS011;24821;51.988;6.020;2022-07-04T10:16:09;13.02;;;12.05;;
39066;SDS011;24821;51.988;6.020;2022-07-04T10:18:36;8.55;;;7.95;;
39066;SDS011;24821;51.988;6.020;2022-07-04T10:21:02;8.27;;;7.68;;
39066;SDS011;24821;51.988;6.020;2022-07-04T10:23:28;11.40;;;10.70;;
39066;SDS011;24821;51.988;6.020;2022-07-04T10:25:57;8.98;;;8.48;;
39066;SDS011;24821;51.988;6.020;2022-07-04T10:28:23;8.43;;;7.90;;
39066;SDS011;24821;51.988;6.020;2022-07-04T10:30:50;9.32;;;8.52;;
39066;SDS011;24821;51.988;6.020;2022-07-04T10:33:29;8.82;;;8.32;;
39066;SDS011;24821;51.988;6.020;2022-07-04T10:35:56;13.38;;;12.60;;
39066;SDS011;24821;51.988;6.020;2022-07-04T10:38:26;10.10;;;9.40;;
39066;SDS011;24821;51.988;6.020;2022-07-04T10:48:50;8.98;;;8.38;;
39066;SDS011;24821;51.988;6.020;2022-07-04T10:54:12;11.65;;;10.95;;
39066;SDS011;24821;51.988;6.020;2022-07-04T10:56:38;11.38;;;10.68;;
39066;SDS011;24821;51.988;6.020;2022-07-04T10:59:19;8.68;;;8.13;;
39066;SDS011;24821;51.988;6.020;2022-07-04T11:08:11;9.13;;;8.52;;
39066;SDS011;24821;51.988;6.020;2022-07-04T11:17:57;7.90;;;7.50;;
39066;SDS011;24821;51.988;6.020;2022-07-04T11:20:27;7.93;;;7.47;;
39066;SDS011;24821;51.988;6.020;2022-07-04T11:23:07;6.88;;;6.57;;
39066;SDS011;24821;51.988;6.020;2022-07-04T11:25:35;6.90;;;6.55;;
39066;SDS011;24821;51.988;6.020;2022-07-04T11:30:52;6.97;;;6.38;;
39066;SDS011;24821;51.988;6.020;2022-07-04T11:33:20;6.85;;;6.43;;
39066;SDS011;24821;51.988;6.020;2022-07-04T11:38:58;8.25;;;7.75;;
39066;SDS011;24821;51.988;6.020;2022-07-04T11:41:28;7.03;;;6.72;;
39066;SDS011;24821;51.988;6.020;2022-07-04T11:44:15;6.53;;;6.13;;
39066;SDS011;24821;51.988;6.020;2022-07-04T11:47:04;6.20;;;5.80;;
39066;SDS011;24821;51.988;6.020;2022-07-04T11:49:30;5.10;;;4.80;;
39066;SDS011;24821;51.988;6.020;2022-07-04T11:51:55;6.88;;;6.38;;
39066;SDS011;24821;51.988;6.020;2022-07-04T11:54:21;5.75;;;5.38;;
39066;SDS011;24821;51.988;6.020;2022-07-04T11:56:48;6.25;;;5.85;;
39066;SDS011;24821;51.988;6.020;2022-07-04T11:59:14;8.93;;;8.52;;
39066;SDS011;24821;51.988;6.020;2022-07-04T12:01:41;5.63;;;5.15;;
39066;SDS011;24821;51.988;6.020;2022-07-04T12:04:14;6.03;;;5.63;;
39066;SDS011;24821;51.988;6.020;2022-07-04T12:06:48;6.32;;;5.82;;
39066;SDS011;24821;51.988;6.020;2022-07-04T12:09:14;5.97;;;5.47;;
39066;SDS011;24821;51.988;6.020;2022-07-04T12:11:53;6.47;;;6.07;;
39066;SDS011;24821;51.988;6.020;2022-07-04T12:14:21;5.93;;;5.63;;
39066;SDS011;24821;51.988;6.020;2022-07-04T12:16:47;6.20;;;5.75;;
39066;SDS011;24821;51.988;6.020;2022-07-04T12:19:13;7.90;;;7.35;;
39066;SDS011;24821;51.988;6.020;2022-07-04T12:21:38;8.55;;;8.07;;
39066;SDS011;24821;51.988;6.020;2022-07-04T12:24:06;5.22;;;5.03;;
39066;SDS011;24821;51.988;6.020;2022-07-04T12:26:32;4.75;;;4.55;;
39066;SDS011;24821;51.988;6.020;2022-07-04T12:28:58;5.03;;;4.80;;
39066;SDS011;24821;51.988;6.020;2022-07-04T12:31:44;8.77;;;8.38;;
39066;SDS011;24821;51.988;6.020;2022-07-04T12:34:16;9.00;;;8.40;;
39066;SDS011;24821;51.988;6.020;2022-07-04T12:36:52;8.73;;;8.23;;
39066;SDS011;24821;51.988;6.020;2022-07-04T12:42:07;5.55;;;5.20;;
39066;SDS011;24821;51.988;6.020;2022-07-04T12:44:35;7.20;;;6.70;;
39066;SDS011;24821;51.988;6.020;2022-07-04T12:47:02;7.00;;;6.63;;
39066;SDS011;24821;51.988;6.020;2022-07-04T12:49:29;7.32;;;7.00;;
39066;SDS011;24821;51.988;6.020;2022-07-04T12:52:11;7.45;;;6.97;;
39066;SDS011;24821;51.988;6.020;2022-07-04T12:54:40;7.15;;;6.55;;
39066;SDS011;24821;51.988;6.020;2022-07-04T12:57:07;7.30;;;7.00;;
39066;SDS011;24821;51.988;6.020;2022-07-04T12:59:38;6.07;;;5.75;;
39066;SDS011;24821;51.988;6.020;2022-07-04T13:02:04;7.43;;;7.07;;
39066;SDS011;24821;51.988;6.020;2022-07-04T13:04:31;8.38;;;7.85;;
39066;SDS011;24821;51.988;6.020;2022-07-04T13:06:58;5.13;;;4.93;;
39066;SDS011;24821;51.988;6.020;2022-07-04T13:09:24;4.72;;;4.35;;
39066;SDS011;24821;51.988;6.020;2022-07-04T13:11:51;7.75;;;6.68;;
39066;SDS011;24821;51.988;6.020;2022-07-04T13:14:35;5.55;;;5.25;;
39066;SDS011;24821;51.988;6.020;2022-07-04T13:17:01;7.05;;;6.45;;
39066;SDS011;24821;51.988;6.020;2022-07-04T13:19:28;5.53;;;5.30;;
39066;SDS011;24821;51.988;6.020;2022-07-04T13:21:54;4.18;;;3.97;;
39066;SDS011;24821;51.988;6.020;2022-07-04T13:24:19;5.88;;;5.65;;
39066;SDS011;24821;51.988;6.020;2022-07-04T13:26:46;4.45;;;4.25;;
39066;SDS011;24821;51.988;6.020;2022-07-04T13:29:12;5.22;;;4.97;;
39066;SDS011;24821;51.988;6.020;2022-07-04T13:31:38;4.78;;;4.53;;
39066;SDS011;24821;51.988;6.020;2022-07-04T13:34:04;5.15;;;4.85;;
39066;SDS011;24821;51.988;6.020;2022-07-04T13:36:30;4.05;;;3.78;;
39066;SDS011;24821;51.988;6.020;2022-07-04T13:38:56;5.95;;;5.68;;
39066;SDS011;24821;51.988;6.020;2022-07-04T13:41:21;4.25;;;3.95;;
39066;SDS011;24821;51.988;6.020;2022-07-04T13:43:47;5.28;;;5.05;;
39066;SDS011;24821;51.988;6.020;2022-07-04T13:46:12;3.47;;;3.35;;
39066;SDS011;24821;51.988;6.020;2022-07-04T13:48:38;8.63;;;8.05;;
39066;SDS011;24821;51.988;6.020;2022-07-04T13:51:04;5.90;;;5.60;;
39066;SDS011;24821;51.988;6.020;2022-07-04T13:53:29;5.57;;;5.35;;
39066;SDS011;24821;51.988;6.020;2022-07-04T13:55:58;5.25;;;4.95;;
39066;SDS011;24821;51.988;6.020;2022-07-04T13:58:23;4.88;;;4.57;;
39066;SDS011;24821;51.988;6.020;2022-07-04T14:00:49;5.00;;;4.72;;
39066;SDS011;24821;51.988;6.020;2022-07-04T14:03:15;5.47;;;5.15;;
39066;SDS011;24821;51.988;6.020;2022-07-04T14:05:41;4.18;;;3.95;;
39066;SDS011;24821;51.988;6.020;2022-07-04T14:08:07;5.40;;;5.00;;
39066;SDS011;24821;51.988;6.020;2022-07-04T14:10:32;4.70;;;4.40;;
39066;SDS011;24821;51.988;6.020;2022-07-04T14:12:58;5.45;;;4.53;;
39066;SDS011;24821;51.988;6.020;2022-07-04T14:15:23;4.70;;;4.40;;
39066;SDS011;24821;51.988;6.020;2022-07-04T14:17:49;4.45;;;4.20;;
39066;SDS011;24821;51.988;6.020;2022-07-04T14:20:15;4.03;;;3.83;;
39066;SDS011;24821;51.988;6.020;2022-07-04T14:22:43;5.32;;;5.03;;
39066;SDS011;24821;51.988;6.020;2022-07-04T14:25:09;5.20;;;4.80;;
39066;SDS011;24821;51.988;6.020;2022-07-04T14:27:34;5.65;;;5.28;;
39066;SDS011;24821;51.988;6.020;2022-07-04T14:30:00;5.20;;;4.90;;
39066;SDS011;24821;51.988;6.020;2022-07-04T14:32:27;3.80;;;3.60;;
39066;SDS011;24821;51.988;6.020;2022-07-04T14:34:53;4.15;;;3.95;;
39066;SDS011;24821;51.988;6.020;2022-07-04T14:37:19;4.95;;;4.47;;
39066;SDS011;24821;51.988;6.020;2022-07-04T14:39:44;4.63;;;4.43;;
39066;SDS011;24821;51.988;6.020;2022-07-04T14:42:10;5.60;;;5.30;;
39066;SDS011;24821;51.988;6.020;2022-07-04T14:44:35;5.35;;;5.05;;
39066;SDS011;24821;51.988;6.020;2022-07-04T14:47:03;5.90;;;5.50;;
39066;SDS011;24821;51.988;6.020;2022-07-04T14:49:29;4.72;;;4.53;;
39066;SDS011;24821;51.988;6.020;2022-07-04T14:51:54;5.63;;;5.32;;
39066;SDS011;24821;51.988;6.020;2022-07-04T14:54:22;4.88;;;4.68;;
39066;SDS011;24821;51.988;6.020;2022-07-04T14:56:47;3.88;;;3.67;;
39066;SDS011;24821;51.988;6.020;2022-07-04T14:59:13;4.00;;;3.80;;
39066;SDS011;24821;51.988;6.020;2022-07-04T15:01:39;4.72;;;4.53;;
39066;SDS011;24821;51.988;6.020;2022-07-04T15:04:04;4.18;;;3.95;;
39066;SDS011;24821;51.988;6.020;2022-07-04T15:06:30;4.30;;;4.10;;
39066;SDS011;24821;51.988;6.020;2022-07-04T15:08:55;3.80;;;3.70;;
39066;SDS011;24821;51.988;6.020;2022-07-04T15:11:21;4.55;;;4.35;;